CYEG/YEG METAR and TAF weather

Enter ICAO airport designator
Station Type Date Time Source
CYEG METAR 2020/04/08 22:00 UTC NOAA

CYEG 082200Z 33010KT 20SM FEW060 SCT140 BKN210 BKN250 02/M09 A3022 RMK SC1AS4CS1CI2 SC TR SLP274


Station Type Date Time Source
CYEG Decoded METAR 2020/04/08 22:00 UTC NOAA

Edmonton International, Alta., Canada (CYEG) 53-18N 113-35W 723M
Apr 08, 2020 - 06:00 PM EDT / 2020.04.08 2200 UTC
Wind: from the NNW (330 degrees) at 12 MPH (10 KT):0
Visibility: 20 mile(s):0
Sky conditions: mostly cloudy
Temperature: 35 F (2 C)
Windchill: 26 F (-3 C):1
Dew Point: 15 F (-9 C)
Relative Humidity: 43%
Pressure (altimeter): 30.22 in. Hg (1023 hPa)
ob: CYEG 082200Z 33010KT 20SM FEW060 SCT140 BKN210 BKN250 02/M09 A3022 RMK SC1AS4CS1CI2 SC TR SLP274
cycle: 22

Station Type Date Time Source
CYEG TAF 2020/04/08 21:42 UTC NOAA

TAF TAF CYEG 082038Z 0821/0918 32012G22KT P6SM FEW140 SCT220
BECMG 0822/0824 32008KT
BECMG 0903/0905 17008KT
FM090800 17010KT P6SM BKN080 OVC200
BECMG 0912/0914 18015KT
RMK NXT FCST BY 090000Z

Example: see airport list